Time;durP1;ratioP1;P1;durP2;ratioP2;P2;SDS_P1;SDS_P2;PMS_P1;PMS_P2;Temp;Humidity;BMP_temperature;BMP_pressure;BME280_temperature;BME280_humidity;BME280_pressure;Samples;Min_cycle;Max_cycle;Signal;HPM_P1;HPM_P2
2022/09/07 03:00:53;;;;;;;1.10;0.70;;;21.20;78.80;;;;;;6025037;23;20406;31
2022/09/07 03:03:25;;;;;;;0.70;0.60;;;21.50;77.90;;;;;;4918695;29;20465;-73
2022/09/07 03:05:58;;;;;;;0.80;0.77;;;21.70;77.20;;;;;;4920398;29;20441;-73
2022/09/07 03:08:29;;;;;;;1.00;0.80;;;21.90;76.70;;;;;;4919546;29;20433;-73
2022/09/07 03:10:57;;;;;;;0.90;0.60;;;22.00;76.20;;;;;;4915406;29;20466;-73
2022/09/07 03:13:26;;;;;;;0.80;0.70;;;22.00;76.20;;;;;;4900871;29;20505;-72
2022/09/07 03:15:53;;;;;;;0.80;0.70;;;22.00;76.30;;;;;;4902173;29;20873;-73
2022/09/07 03:18:21;;;;;;;0.70;0.67;;;22.10;76.20;;;;;;4900811;29;20480;-73
2022/09/07 03:20:48;;;;;;;0.80;0.70;;;22.10;76.10;;;;;;4900615;29;21056;-73
2022/09/07 03:23:15;;;;;;;1.00;0.70;;;22.10;76.50;;;;;;4900469;29;20464;-73
2022/09/07 03:25:42;;;;;;;1.13;0.80;;;22.10;76.50;;;;;;4900655;29;20449;-73
2022/09/07 03:28:09;;;;;;;0.80;0.70;;;22.10;76.50;;;;;;4900578;29;20953;-73
2022/09/07 03:30:36;;;;;;;0.80;0.60;;;22.00;76.90;;;;;;4900507;29;20464;-73
2022/09/07 03:33:02;;;;;;;0.90;0.70;;;22.10;76.80;;;;;;4900535;29;20513;-73
2022/09/07 03:35:30;;;;;;;0.80;0.70;;;22.10;76.80;;;;;;4900470;29;20981;-73
2022/09/07 03:37:57;;;;;;;1.00;0.90;;;22.20;76.50;;;;;;4900412;29;20464;-73
2022/09/07 03:40:24;;;;;;;0.80;0.80;;;22.30;76.30;;;;;;4900052;29;20457;-73
2022/09/07 03:42:50;;;;;;;0.73;0.70;;;22.30;76.30;;;;;;4900310;29;20540;-73
2022/09/07 03:45:17;;;;;;;0.80;0.60;;;22.30;76.30;;;;;;4900297;29;20461;-73
2022/09/07 03:47:44;;;;;;;0.90;0.60;;;22.30;76.30;;;;;;4900273;29;20537;-73
2022/09/07 03:50:11;;;;;;;0.80;0.70;;;22.30;76.30;;;;;;4900283;29;20457;-73
2022/09/07 03:52:39;;;;;;;0.80;0.70;;;22.20;76.60;;;;;;4899797;29;20903;-73
2022/09/07 03:55:06;;;;;;;1.40;0.80;;;22.20;76.60;;;;;;4899846;29;20989;-73
2022/09/07 03:57:33;;;;;;;1.00;0.70;;;22.20;76.60;;;;;;4900047;29;20449;-73
2022/09/07 04:00:00;;;;;;;0.70;0.60;;;22.20;76.50;;;;;;4900036;29;20450;-73
2022/09/07 04:02:26;;;;;;;0.70;0.63;;;22.00;77.00;;;;;;4899540;29;20505;-73
2022/09/07 04:04:53;;;;;;;0.80;0.70;;;22.10;76.90;;;;;;4899832;29;20461;-73
2022/09/07 04:07:19;;;;;;;0.70;0.60;;;22.10;77.00;;;;;;4899362;29;20457;-72
2022/09/07 04:09:50;;;;;;;0.80;0.70;;;22.10;77.00;;;;;;4899857;29;20457;-73
2022/09/07 04:12:16;;;;;;;0.70;0.60;;;22.10;77.10;;;;;;4899447;29;20841;-73
2022/09/07 04:14:43;;;;;;;0.70;0.60;;;22.20;77.00;;;;;;4899775;29;20514;-73
2022/09/07 04:17:10;;;;;;;1.33;0.60;;;22.20;77.00;;;;;;4899713;29;20461;-73
2022/09/07 04:19:36;;;;;;;0.70;0.60;;;22.20;76.90;;;;;;4899398;29;20946;-73
2022/09/07 04:22:03;;;;;;;0.70;0.60;;;22.20;76.90;;;;;;4899486;29;20486;-73
2022/09/07 04:24:29;;;;;;;0.70;0.60;;;22.20;76.90;;;;;;4899580;29;20465;-73
2022/09/07 04:26:57;;;;;;;0.80;0.70;;;22.10;77.00;;;;;;4899545;29;20453;-73
2022/09/07 04:29:24;;;;;;;0.70;0.60;;;22.10;77.30;;;;;;4899752;29;20513;-73
2022/09/07 04:31:51;;;;;;;0.90;0.80;;;22.00;77.30;;;;;;4899398;29;20473;-73
2022/09/07 04:34:17;;;;;;;0.70;0.70;;;21.70;78.00;;;;;;4899455;29;20453;-73
2022/09/07 04:36:44;;;;;;;0.80;0.70;;;21.70;78.20;;;;;;4899052;29;20807;-73
2022/09/07 04:39:11;;;;;;;0.70;0.70;;;21.70;78.30;;;;;;4899024;29;20509;-73
2022/09/07 04:41:38;;;;;;;0.70;0.67;;;21.70;78.20;;;;;;4899146;29;20496;-73
2022/09/07 04:44:06;;;;;;;0.70;0.70;;;21.50;78.80;;;;;;4899242;29;20457;-73
2022/09/07 04:46:33;;;;;;;0.87;0.60;;;21.60;78.60;;;;;;4899196;29;20513;-73
2022/09/07 04:49:03;;;;;;;0.93;0.70;;;21.50;78.70;;;;;;4899175;29;20509;-73
2022/09/07 04:51:31;;;;;;;0.80;0.70;;;21.60;78.40;;;;;;4898989;29;20470;-74
2022/09/07 04:54:00;;;;;;;0.70;0.60;;;21.50;78.80;;;;;;4899123;29;20643;-73
2022/09/07 04:56:27;;;;;;;0.70;0.60;;;21.60;78.50;;;;;;4898999;29;20553;-73
2022/09/07 04:58:54;;;;;;;0.70;0.60;;;21.60;78.30;;;;;;4899255;29;20509;-73
2022/09/07 05:01:24;;;;;;;0.70;0.63;;;21.70;78.20;;;;;;4898415;29;21004;-73
2022/09/07 05:03:52;;;;;;;0.93;0.70;;;21.50;78.30;;;;;;4898941;29;20493;-73
2022/09/07 05:06:20;;;;;;;0.70;0.60;;;21.20;79.20;;;;;;4898593;29;20465;-73
2022/09/07 05:08:49;;;;;;;0.70;0.70;;;20.90;80.10;;;;;;4898834;29;20453;-73
2022/09/07 05:11:17;;;;;;;0.70;0.60;;;20.70;80.70;;;;;;4898426;29;20846;-73
2022/09/07 05:13:43;;;;;;;0.70;0.67;;;20.40;81.60;;;;;;4898784;29;20509;-73
2022/09/07 05:16:12;;;;;;;0.80;0.60;;;20.40;81.90;;;;;;4898956;29;20544;-73
2022/09/07 05:18:40;;;;;;;0.80;0.70;;;20.30;82.10;;;;;;4898816;29;20458;-73
2022/09/07 05:21:09;;;;;;;0.90;0.70;;;20.20;82.70;;;;;;4898626;29;20469;-75
2022/09/07 05:23:35;;;;;;;0.73;0.70;;;20.40;82.60;;;;;;4898639;29;20496;-73
2022/09/07 05:26:04;;;;;;;0.80;0.70;;;20.30;82.50;;;;;;4898612;29;20537;-75
2022/09/07 05:28:31;;;;;;;0.80;0.67;;;20.40;82.50;;;;;;4898584;29;20549;-76
2022/09/07 05:31:04;;;;;;;0.70;0.67;;;20.30;82.40;;;;;;4898448;29;20478;-75
2022/09/07 05:33:30;;;;;;;0.70;0.60;;;20.20;82.80;;;;;;4898557;29;20434;-75
2022/09/07 05:35:59;;;;;;;0.83;0.60;;;20.30;82.70;;;;;;4898551;29;20461;-76
2022/09/07 05:38:26;;;;;;;1.07;0.97;;;20.40;82.60;;;;;;4898425;29;20461;-75
2022/09/07 05:40:52;;;;;;;0.70;0.60;;;20.70;81.70;;;;;;4898283;29;20482;-75
2022/09/07 05:43:19;;;;;;;0.90;0.70;;;20.90;81.00;;;;;;4898591;29;20508;-75
2022/09/07 05:45:46;;;;;;;0.70;0.70;;;21.10;80.30;;;;;;4898057;29;20942;-76
2022/09/07 05:48:12;;;;;;;0.90;0.77;;;21.40;79.80;;;;;;4898052;29;21002;-76
2022/09/07 05:50:39;;;;;;;1.07;0.97;;;21.60;79.10;;;;;;4898266;29;20446;-76
2022/09/07 05:53:08;;;;;;;0.70;0.70;;;21.90;77.50;;;;;;4898281;29;20446;-76
2022/09/07 05:55:34;;;;;;;0.80;0.60;;;22.00;77.50;;;;;;4898286;29;20514;-76
2022/09/07 05:58:01;;;;;;;0.70;0.60;;;22.50;76.50;;;;;;4898327;29;20457;-77
2022/09/07 06:00:27;;;;;;;0.87;0.60;;;22.90;74.60;;;;;;4898064;29;20453;-76
2022/09/07 06:02:54;;;;;;;1.03;0.90;;;23.40;72.70;;;;;;4898075;29;20492;-76
2022/09/07 06:05:21;;;;;;;0.80;0.60;;;23.20;73.50;;;;;;4898218;29;20498;-76
2022/09/07 06:07:47;;;;;;;0.70;0.67;;;23.90;71.90;;;;;;4898169;29;20465;-77
2022/09/07 06:10:16;;;;;;;0.80;0.60;;;24.40;70.80;;;;;;4898804;29;20584;-76
2022/09/07 06:12:45;;;;;;;1.67;0.80;;;25.40;67.80;;;;;;4898078;29;20466;-77
2022/09/07 06:15:12;;;;;;;0.90;0.70;;;26.40;64.70;;;;;;4898033;29;20466;-78
2022/09/07 06:17:38;;;;;;;0.80;0.70;;;27.40;63.00;;;;;;4897778;29;20461;-77
2022/09/07 06:20:07;;;;;;;0.70;0.60;;;28.10;60.70;;;;;;4897718;29;20890;-77
2022/09/07 06:22:35;;;;;;;1.00;0.70;;;28.60;59.20;;;;;;4897852;29;20497;-77
2022/09/07 06:25:02;;;;;;;1.20;0.70;;;29.50;58.10;;;;;;4898828;29;20484;-77
2022/09/07 06:27:30;;;;;;;0.90;0.70;;;30.70;55.70;;;;;;4897991;29;20525;-77
2022/09/07 06:29:57;;;;;;;0.70;0.70;;;31.50;53.90;;;;;;4900359;29;20466;-77
2022/09/07 06:32:24;;;;;;;0.80;0.60;;;32.90;51.10;;;;;;4901315;29;20462;-78
2022/09/07 06:34:51;;;;;;;0.70;0.60;;;33.80;48.90;;;;;;4901744;29;20457;-77
2022/09/07 06:37:18;;;;;;;1.00;0.90;;;32.80;49.90;;;;;;4901518;29;20457;-77
2022/09/07 06:39:44;;;;;;;0.77;0.73;;;31.90;51.90;;;;;;4901176;29;20946;-77
2022/09/07 06:42:11;;;;;;;0.70;0.60;;;30.80;53.90;;;;;;4901006;29;20498;-76
2022/09/07 06:44:39;;;;;;;0.90;0.70;;;30.50;55.40;;;;;;4901348;29;20908;-76
2022/09/07 06:47:06;;;;;;;0.80;0.70;;;29.70;56.30;;;;;;4901071;29;20950;-76
2022/09/07 06:49:33;;;;;;;0.80;0.60;;;28.60;58.40;;;;;;4901302;29;20449;-76
2022/09/07 06:51:59;;;;;;;0.80;0.80;;;27.20;61.80;;;;;;4901192;29;20478;-76
2022/09/07 06:54:26;;;;;;;0.80;0.70;;;26.30;64.40;;;;;;4901254;29;20450;-75
2022/09/07 06:56:53;;;;;;;0.80;0.70;;;25.70;65.90;;;;;;4901219;29;20458;-76
2022/09/07 06:59:20;;;;;;;0.70;0.60;;;24.90;68.10;;;;;;4901132;29;20452;-76
2022/09/07 07:01:48;;;;;;;0.70;0.60;;;24.60;69.10;;;;;;4900721;29;20497;-76
2022/09/07 07:04:15;;;;;;;0.70;0.70;;;24.70;70.00;;;;;;4900744;29;20454;-77
2022/09/07 07:06:41;;;;;;;0.70;0.60;;;25.00;68.80;;;;;;4900999;29;20489;-77
2022/09/07 07:09:12;;;;;;;1.00;0.90;;;25.50;67.50;;;;;;4900939;29;20449;-76
2022/09/07 07:11:38;;;;;;;0.70;0.63;;;25.90;66.40;;;;;;4900571;29;21001;-77
2022/09/07 07:14:05;;;;;;;0.70;0.60;;;25.80;66.80;;;;;;4900537;29;21001;-76
2022/09/07 07:16:31;;;;;;;1.00;0.80;;;26.20;65.70;;;;;;4900905;29;20450;-76
2022/09/07 07:19:00;;;;;;;0.80;0.80;;;26.30;65.90;;;;;;4900828;29;20481;-77
2022/09/07 07:21:26;;;;;;;0.70;0.60;;;26.40;65.60;;;;;;4900336;29;21052;-77
2022/09/07 07:23:53;;;;;;;0.80;0.70;;;26.20;65.50;;;;;;4900372;29;21072;-77
2022/09/07 07:26:21;;;;;;;1.00;0.70;;;25.90;66.60;;;;;;4900739;29;20540;-77
2022/09/07 07:28:49;;;;;;;0.87;0.73;;;25.90;66.90;;;;;;4900692;29;20461;-77
2022/09/07 07:31:17;;;;;;;0.80;0.80;;;25.80;66.60;;;;;;4900280;29;20462;-77
2022/09/07 07:33:45;;;;;;;0.80;0.67;;;25.90;66.70;;;;;;4900284;29;20808;-77
2022/09/07 07:36:14;;;;;;;0.80;0.70;;;26.00;67.10;;;;;;4900201;29;20461;-77
2022/09/07 07:38:43;;;;;;;0.70;0.60;;;26.20;66.60;;;;;;4900482;29;20959;-78
2022/09/07 07:41:10;;;;;;;0.97;0.70;;;26.40;66.50;;;;;;4899864;29;20469;-78
2022/09/07 07:43:37;;;;;;;0.70;0.70;;;26.50;65.10;;;;;;4900263;29;20491;-77
2022/09/07 07:46:04;;;;;;;1.00;0.90;;;26.20;66.60;;;;;;4900297;29;20450;-77
2022/09/07 07:48:32;;;;;;;0.93;0.70;;;26.40;65.70;;;;;;4900236;29;20825;-77
2022/09/07 07:50:59;;;;;;;0.80;0.70;;;26.20;66.10;;;;;;4901373;29;20482;-78
2022/09/07 07:53:28;;;;;;;0.80;0.80;;;26.20;66.30;;;;;;4900278;29;20458;-77
2022/09/07 07:55:57;;;;;;;1.00;0.80;;;26.40;65.20;;;;;;4900205;29;20454;-77
2022/09/07 07:58:25;;;;;;;1.00;1.00;;;26.40;65.30;;;;;;4900127;29;20532;-77
2022/09/07 08:00:52;;;;;;;0.80;0.80;;;26.40;65.70;;;;;;4900011;29;20477;-75
2022/09/07 08:03:19;;;;;;;1.17;0.70;;;26.80;65.40;;;;;;4899932;29;20478;-74
2022/09/07 08:05:45;;;;;;;0.80;0.80;;;27.00;64.30;;;;;;4900172;29;20457;-74
2022/09/07 08:08:14;;;;;;;0.80;0.60;;;27.20;64.00;;;;;;4899908;29;20457;-75
2022/09/07 08:10:42;;;;;;;0.80;0.80;;;27.30;63.20;;;;;;4899733;29;20826;-74
2022/09/07 08:13:08;;;;;;;0.80;0.70;;;27.50;63.00;;;;;;4899478;29;20454;-74
2022/09/07 08:15:38;;;;;;;0.80;0.73;;;27.40;62.60;;;;;;4899761;29;20454;-73
2022/09/07 08:18:05;;;;;;;1.00;0.70;;;27.30;62.30;;;;;;4899674;29;20557;-75
2022/09/07 08:20:32;;;;;;;1.00;0.80;;;27.10;63.50;;;;;;4899575;29;20487;-74
2022/09/07 08:22:58;;;;;;;0.80;0.70;;;27.30;62.50;;;;;;4899561;29;20485;-75
2022/09/07 08:25:25;;;;;;;0.80;0.60;;;26.90;63.50;;;;;;4899509;29;20885;-74
2022/09/07 08:27:53;;;;;;;0.80;0.80;;;27.20;63.40;;;;;;4899505;29;20466;-74
2022/09/07 08:30:21;;;;;;;0.83;0.70;;;27.20;63.00;;;;;;4899469;29;20505;-75
2022/09/07 08:32:47;;;;;;;0.90;0.80;;;27.00;64.10;;;;;;4899388;29;20472;-75
2022/09/07 08:35:14;;;;;;;0.90;0.80;;;27.30;64.10;;;;;;4899433;29;20450;-74
2022/09/07 08:37:41;;;;;;;0.80;0.70;;;27.60;62.60;;;;;;4899414;29;20647;-76
2022/09/07 08:40:10;;;;;;;1.00;0.90;;;27.70;62.60;;;;;;4899329;29;20529;-73
2022/09/07 08:42:47;;;;;;;1.33;0.80;;;28.10;61.60;;;;;;4899110;29;20521;-74
2022/09/07 08:45:21;;;;;;;0.80;0.80;;;28.20;61.60;;;;;;4899241;29;20442;-73
2022/09/07 08:47:50;;;;;;;0.80;0.80;;;28.40;60.70;;;;;;4899258;29;20572;-73
2022/09/07 08:50:22;;;;;;;1.30;0.90;;;28.40;60.70;;;;;;4899117;29;20541;-74
2022/09/07 08:52:53;;;;;;;0.80;0.70;;;28.50;60.70;;;;;;4898627;29;20868;-73
2022/09/07 08:55:26;;;;;;;1.03;0.70;;;28.80;60.70;;;;;;4899199;29;20434;-74
2022/09/07 08:58:01;;;;;;;0.80;0.80;;;29.10;59.30;;;;;;4899046;29;20438;-73
2022/09/07 09:00:30;;;;;;;0.93;0.83;;;29.30;58.60;;;;;;4898887;29;20470;-74
2022/09/07 09:02:57;;;;;;;0.77;0.70;;;29.30;58.30;;;;;;4898876;29;21095;-73
2022/09/07 09:05:31;;;;;;;0.90;0.70;;;28.70;60.00;;;;;;4899034;29;20536;-73
2022/09/07 09:08:14;;;;;;;0.90;0.80;;;28.50;61.50;;;;;;4898958;29;20446;-74
2022/09/07 09:10:53;;;;;;;0.90;0.80;;;28.30;60.20;;;;;;4898645;29;20434;-74
2022/09/07 09:13:26;;;;;;;0.80;0.70;;;28.00;61.30;;;;;;4898961;29;20516;-73
2022/09/07 09:16:00;;;;;;;0.80;0.80;;;28.10;61.40;;;;;;4900153;29;20446;-73
2022/09/07 09:18:36;;;;;;;0.80;0.73;;;27.90;60.70;;;;;;4898472;29;20439;-73
2022/09/07 09:21:06;;;;;;;0.90;0.80;;;27.60;62.40;;;;;;4898663;29;20491;-73
2022/09/07 09:23:37;;;;;;;0.90;0.80;;;27.40;63.10;;;;;;4898581;29;20500;-73
2022/09/07 09:26:10;;;;;;;0.90;0.70;;;27.60;62.60;;;;;;4898568;29;20493;-73
2022/09/07 09:28:37;;;;;;;0.80;0.70;;;27.80;61.50;;;;;;4898548;29;20446;-73
2022/09/07 09:31:05;;;;;;;0.80;0.70;;;27.80;61.00;;;;;;4898474;29;20489;-73
2022/09/07 09:33:32;;;;;;;0.90;0.63;;;28.00;60.40;;;;;;4898447;29;20457;-73
2022/09/07 09:36:00;;;;;;;0.80;0.70;;;28.10;60.70;;;;;;4898656;29;20825;-73
2022/09/07 09:38:33;;;;;;;1.17;0.70;;;28.00;60.30;;;;;;4898391;29;20449;-73
2022/09/07 09:41:03;;;;;;;0.83;0.70;;;28.10;59.50;;;;;;4898317;29;20473;-73
2022/09/07 09:43:36;;;;;;;0.70;0.70;;;28.00;59.80;;;;;;4898250;29;20565;-73
2022/09/07 09:46:12;;;;;;;0.90;0.77;;;27.90;60.90;;;;;;4898345;29;20438;-73
2022/09/07 09:48:40;;;;;;;0.80;0.70;;;27.90;59.70;;;;;;4898379;29;20446;-73
2022/09/07 09:51:08;;;;;;;0.80;0.70;;;27.80;60.50;;;;;;4898129;29;20560;-73
2022/09/07 09:53:39;;;;;;;0.70;0.70;;;27.90;60.40;;;;;;4898191;29;20454;-74
2022/09/07 09:56:07;;;;;;;0.80;0.70;;;27.90;60.30;;;;;;4898286;29;20528;-73
2022/09/07 09:58:36;;;;;;;0.90;0.70;;;28.00;60.30;;;;;;4898153;29;20454;-74
2022/09/07 10:01:05;;;;;;;0.90;0.60;;;27.90;60.60;;;;;;4898141;29;20489;-72
2022/09/07 10:03:34;;;;;;;0.70;0.60;;;28.00;58.90;;;;;;4898234;29;20525;-74
2022/09/07 10:06:03;;;;;;;1.00;0.70;;;27.90;59.40;;;;;;4901967;29;20454;-74
2022/09/07 10:08:32;;;;;;;0.80;0.60;;;28.00;60.00;;;;;;4901590;29;20457;-74
2022/09/07 10:11:01;;;;;;;0.80;0.60;;;27.90;59.90;;;;;;4901912;29;20474;-74
2022/09/07 10:13:31;;;;;;;0.90;0.80;;;27.80;59.90;;;;;;4901869;29;20449;-74
2022/09/07 10:15:59;;;;;;;0.80;0.77;;;27.70;60.50;;;;;;4902193;29;20540;-73
2022/09/07 10:18:34;;;;;;;0.90;0.80;;;27.90;61.50;;;;;;4901843;29;20549;-73
2022/09/07 10:21:23;;;;;;;0.80;0.70;;;28.00;60.10;;;;;;4901450;29;20477;-74
2022/09/07 10:23:54;;;;;;;0.80;0.80;;;28.20;60.10;;;;;;4902144;29;20533;-73
2022/09/07 10:26:30;;;;;;;1.00;0.90;;;28.00;60.30;;;;;;4902361;29;20438;-72
2022/09/07 10:29:11;;;;;;;0.80;0.70;;;27.80;60.20;;;;;;4901835;29;20536;-73
2022/09/07 10:31:53;;;;;;;0.80;0.77;;;27.90;60.50;;;;;;4901660;29;20481;-73
2022/09/07 10:34:29;;;;;;;0.80;0.70;;;27.70;60.30;;;;;;4901926;29;20445;-73
2022/09/07 10:37:02;;;;;;;0.80;0.70;;;27.90;60.30;;;;;;4901776;29;20816;-73
2022/09/07 10:39:35;;;;;;;0.80;0.80;;;28.10;60.70;;;;;;4901515;29;20871;-73
2022/09/07 10:42:09;;;;;;;0.70;0.60;;;28.20;59.10;;;;;;4901692;29;20505;-72
2022/09/07 10:44:50;;;;;;;1.00;0.83;;;28.00;59.90;;;;;;4901352;29;20480;-73
2022/09/07 10:47:29;;;;;;;0.80;0.70;;;28.10;59.90;;;;;;4901483;29;20858;-74
2022/09/07 10:50:04;;;;;;;0.80;0.80;;;28.30;59.80;;;;;;4901553;29;20438;-74
2022/09/07 10:52:40;;;;;;;0.80;0.70;;;28.40;57.50;;;;;;4901519;29;20488;-74
2022/09/07 10:55:13;;;;;;;0.80;0.80;;;28.70;57.60;;;;;;4901295;29;20434;-74
2022/09/07 10:57:54;;;;;;;0.80;0.60;;;28.60;55.90;;;;;;4901156;29;20446;-75
2022/09/07 11:00:22;;;;;;;0.80;0.70;;;28.40;56.30;;;;;;4901256;29;20442;-74
2022/09/07 11:03:24;;;;;;;0.80;0.70;;;28.40;56.30;;;;;;4900799;29;20493;-73
2022/09/07 11:06:14;;;;;;;0.80;0.70;;;28.30;56.90;;;;;;4903153;29;20469;-76
2022/09/07 11:09:11;;;;;;;0.80;0.70;;;28.40;56.90;;;;;;4908308;29;20438;-76
2022/09/07 11:11:41;;;;;;;0.90;0.90;;;28.50;56.50;;;;;;4908899;29;20478;-78
2022/09/07 11:14:13;;;;;;;0.70;0.60;;;28.80;53.20;;;;;;4911586;29;20922;-77
2022/09/07 11:16:47;;;;;;;0.80;0.60;;;29.00;52.90;;;;;;4912049;29;20439;-77
2022/09/07 11:19:19;;;;;;;0.90;0.67;;;29.40;53.80;;;;;;4913800;29;20445;-75
2022/09/07 11:21:59;;;;;;;0.80;0.60;;;29.70;55.20;;;;;;4913217;29;20477;-77
2022/09/07 11:24:33;;;;;;;0.83;0.67;;;29.80;56.20;;;;;;4912280;29;20477;-76
2022/09/07 11:27:06;;;;;;;0.70;0.60;;;29.70;56.30;;;;;;4912160;29;20425;-76
2022/09/07 11:29:38;;;;;;;0.80;0.70;;;29.60;57.20;;;;;;4912319;29;20489;-74
2022/09/07 11:32:09;;;;;;;0.80;0.70;;;29.50;58.10;;;;;;4910919;29;20474;-75
2022/09/07 11:34:40;;;;;;;1.27;0.90;;;29.60;57.80;;;;;;4912765;29;20442;-75
2022/09/07 11:37:13;;;;;;;0.70;0.60;;;29.50;57.60;;;;;;4910965;29;20439;-75
2022/09/07 11:39:44;;;;;;;0.73;0.60;;;29.40;56.20;;;;;;4902191;29;20911;-74
2022/09/07 11:42:18;;;;;;;1.07;0.70;;;29.30;56.60;;;;;;4900033;29;20989;-75
2022/09/07 11:44:48;;;;;;;0.80;0.60;;;29.20;57.50;;;;;;4900319;29;20474;-74
2022/09/07 11:47:22;;;;;;;0.70;0.60;;;29.40;57.20;;;;;;4900353;29;20438;-75
2022/09/07 11:49:52;;;;;;;0.73;0.60;;;29.70;56.90;;;;;;4900297;29;20433;-75
2022/09/07 11:52:29;;;;;;;1.77;0.80;;;30.10;55.30;;;;;;4900148;29;20525;-74
2022/09/07 11:54:59;;;;;;;0.80;0.60;;;30.60;54.30;;;;;;4899923;29;20941;-75
2022/09/07 11:57:46;;;;;;;0.80;0.60;;;30.80;50.70;;;;;;4900205;29;20435;-74
2022/09/07 12:00:18;;;;;;;0.80;0.70;;;30.80;50.40;;;;;;4900354;29;20957;-76
2022/09/07 12:03:22;;;;;;;0.70;0.60;;;30.80;50.30;;;;;;4900938;29;20495;-76
2022/09/07 12:06:19;;;;;;;1.00;0.80;;;30.60;50.40;;;;;;4897083;29;20457;-75
2022/09/07 12:09:10;;;;;;;0.90;0.70;;;30.60;51.10;;;;;;4885730;29;20473;-76
2022/09/07 12:12:10;;;;;;;1.20;0.60;;;30.80;51.00;;;;;;4899849;29;20482;-74
2022/09/07 12:14:49;;;;;;;0.70;0.60;;;31.10;50.20;;;;;;4899604;29;20441;-76
2022/09/07 12:17:44;;;;;;;0.80;0.60;;;31.40;49.80;;;;;;4899853;29;20532;-75
2022/09/07 12:20:16;;;;;;;0.70;0.60;;;31.80;50.60;;;;;;4899471;29;20906;-75
2022/09/07 12:23:01;;;;;;;0.77;0.60;;;32.00;48.80;;;;;;4899592;29;20477;-75
2022/09/07 12:25:29;;;;;;;0.80;0.70;;;32.40;46.10;;;;;;4899561;29;20485;-76
2022/09/07 12:27:57;;;;;;;0.70;0.70;;;32.50;47.30;;;;;;4898432;29;20885;-75
2022/09/07 12:30:52;;;;;;;0.70;0.50;;;32.50;47.30;;;;;;4899464;29;20795;-77
2022/09/07 12:33:30;;;;;;;0.80;0.70;;;32.50;47.00;;;;;;4899525;29;20438;-75
2022/09/07 12:35:59;;;;;;;0.70;0.60;;;32.40;48.00;;;;;;4899504;29;20438;-75
2022/09/07 12:39:19;;;;;;;0.80;0.60;;;32.50;47.90;;;;;;4899787;29;20577;-75
2022/09/07 12:41:50;;;;;;;0.80;0.70;;;32.40;47.90;;;;;;4900116;29;20474;-74
2022/09/07 12:44:20;;;;;;;0.90;0.70;;;32.40;47.40;;;;;;4899191;29;20564;-75
2022/09/07 12:46:58;;;;;;;0.83;0.60;;;32.30;47.90;;;;;;4899228;29;20990;-74
2022/09/07 12:49:47;;;;;;;0.93;0.60;;;32.30;48.80;;;;;;4908397;29;20433;-75
2022/09/07 12:52:47;;;;;;;0.80;0.70;;;32.40;48.40;;;;;;4908351;29;20993;-73
2022/09/07 12:55:42;;;;;;;0.90;0.70;;;32.30;48.20;;;;;;4869915;29;20588;-76
2022/09/07 12:58:28;;;;;;;0.70;0.60;;;32.20;48.00;;;;;;4853900;29;20461;-75
2022/09/07 13:01:07;;;;;;;0.80;0.63;;;32.10;48.80;;;;;;4907357;29;20478;-75
2022/09/07 13:03:49;;;;;;;0.80;0.60;;;32.20;49.20;;;;;;4908699;29;20430;-75
2022/09/07 13:06:28;;;;;;;0.70;0.60;;;32.20;48.80;;;;;;4907809;29;20471;-75
2022/09/07 13:09:12;;;;;;;0.80;0.70;;;32.00;48.20;;;;;;4908681;29;20429;-75
2022/09/07 13:11:40;;;;;;;0.80;0.70;;;31.80;48.80;;;;;;4909826;29;20470;-75
2022/09/07 13:14:19;;;;;;;0.90;0.70;;;31.70;49.30;;;;;;4908733;29;20450;-75
2022/09/07 13:16:47;;;;;;;0.80;0.60;;;31.80;49.60;;;;;;4908164;29;20466;-74
2022/09/07 13:19:16;;;;;;;1.00;0.70;;;31.70;49.40;;;;;;4908529;29;20532;-75
2022/09/07 13:21:47;;;;;;;0.70;0.63;;;31.90;49.90;;;;;;4908240;29;20478;-74
2022/09/07 13:24:55;;;;;;;1.17;0.70;;;32.20;49.30;;;;;;4908252;29;20513;-74
2022/09/07 13:27:45;;;;;;;0.80;0.60;;;32.30;48.00;;;;;;4909244;29;20512;-74
2022/09/07 13:30:28;;;;;;;0.70;0.60;;;32.20;48.50;;;;;;4908114;29;20438;-75
2022/09/07 13:33:28;;;;;;;0.70;0.60;;;32.20;47.50;;;;;;4907126;29;20449;-75
2022/09/07 13:35:57;;;;;;;0.80;0.60;;;32.40;47.00;;;;;;4908203;29;20453;-75
2022/09/07 13:38:25;;;;;;;0.80;0.60;;;32.50;47.50;;;;;;4907367;29;20457;-74
2022/09/07 13:40:53;;;;;;;0.80;0.70;;;32.60;46.10;;;;;;4909621;29;20485;-75
2022/09/07 13:43:22;;;;;;;0.80;0.60;;;32.40;46.80;;;;;;4906786;29;20457;-74
2022/09/07 13:46:00;;;;;;;0.70;0.60;;;32.20;47.20;;;;;;4907969;29;21024;-74
2022/09/07 13:48:32;;;;;;;0.80;0.60;;;32.10;47.30;;;;;;4908832;29;20436;-74
2022/09/07 13:51:06;;;;;;;1.10;0.83;;;32.00;47.50;;;;;;4901797;29;20480;-75
2022/09/07 13:53:58;;;;;;;0.80;0.60;;;31.90;47.00;;;;;;4898905;29;20494;-75
2022/09/07 13:56:38;;;;;;;0.70;0.50;;;31.80;47.30;;;;;;4907237;29;20477;-73
2022/09/07 13:59:18;;;;;;;0.80;0.70;;;31.80;48.20;;;;;;4908865;29;20431;-75
2022/09/07 14:01:48;;;;;;;0.80;0.63;;;31.80;48.10;;;;;;4903288;29;20485;-75
2022/09/07 14:04:23;;;;;;;1.13;0.60;;;31.80;48.10;;;;;;4909086;29;20438;-76
2022/09/07 14:06:50;;;;;;;0.80;0.60;;;31.60;48.60;;;;;;4910125;29;20444;-75
2022/09/07 14:09:20;;;;;;;0.70;0.50;;;31.50;48.50;;;;;;4908302;29;20942;-74
2022/09/07 14:11:49;;;;;;;0.77;0.50;;;31.50;48.20;;;;;;4906807;29;20794;-73
2022/09/07 14:14:18;;;;;;;0.83;0.60;;;31.50;47.70;;;;;;4906686;29;20458;-75
2022/09/07 14:16:48;;;;;;;0.70;0.60;;;31.50;47.60;;;;;;4906840;29;20461;-74
2022/09/07 14:19:19;;;;;;;0.77;0.70;;;31.50;47.70;;;;;;4907044;29;20458;-74
2022/09/07 14:21:57;;;;;;;0.70;0.60;;;31.40;48.20;;;;;;4906636;29;20881;-74
2022/09/07 14:24:30;;;;;;;0.90;0.70;;;31.20;48.20;;;;;;4906831;29;20807;-73
2022/09/07 14:26:57;;;;;;;0.90;0.70;;;31.10;48.20;;;;;;4905869;29;20449;-74
2022/09/07 14:29:28;;;;;;;0.70;0.60;;;31.00;48.70;;;;;;4906885;29;20462;-75
2022/09/07 14:31:57;;;;;;;0.70;0.60;;;30.80;48.20;;;;;;4905826;29;20528;-74
2022/09/07 14:34:28;;;;;;;0.77;0.67;;;30.70;48.90;;;;;;4905872;29;20457;-74
2022/09/07 14:36:58;;;;;;;0.90;0.70;;;30.70;49.10;;;;;;4904761;29;20463;-74
2022/09/07 14:39:28;;;;;;;0.80;0.60;;;30.50;48.70;;;;;;4906313;29;20448;-74
2022/09/07 14:41:57;;;;;;;1.80;0.77;;;30.40;49.60;;;;;;4906861;29;20478;-73
2022/09/07 14:44:32;;;;;;;1.00;0.70;;;30.30;49.90;;;;;;4906277;29;20553;-74
2022/09/07 14:47:05;;;;;;;1.43;0.70;;;30.40;50.60;;;;;;4907871;29;20446;-74
2022/09/07 14:49:33;;;;;;;0.90;0.67;;;30.40;49.90;;;;;;4907229;29;20452;-74
2022/09/07 14:52:00;;;;;;;0.80;0.70;;;30.30;50.30;;;;;;4910635;29;20478;-75
2022/09/07 14:54:30;;;;;;;0.80;0.70;;;30.40;50.50;;;;;;4910750;29;20464;-73
2022/09/07 14:57:19;;;;;;;1.10;0.60;;;30.70;50.40;;;;;;4906642;29;20525;-74
2022/09/07 14:59:47;;;;;;;0.70;0.60;;;31.60;49.10;;;;;;4901736;29;20588;-74
2022/09/07 15:02:27;;;;;;;1.00;0.60;;;31.90;47.90;;;;;;4901817;29;20493;-74
2022/09/07 15:05:16;;;;;;;0.77;0.63;;;31.80;48.60;;;;;;4902250;29;20473;-73
2022/09/07 15:07:46;;;;;;;0.80;0.60;;;32.20;48.70;;;;;;4902101;29;20492;-75
2022/09/07 15:10:14;;;;;;;0.97;0.60;;;32.40;47.30;;;;;;4902001;29;20446;-74
2022/09/07 15:12:42;;;;;;;1.50;0.90;;;32.10;48.30;;;;;;4901513;29;20465;-75
2022/09/07 15:15:11;;;;;;;1.00;0.90;;;31.90;48.60;;;;;;4902576;29;20537;-72
2022/09/07 15:17:39;;;;;;;0.80;0.77;;;31.80;48.90;;;;;;4901050;29;20458;-75
2022/09/07 15:20:39;;;;;;;1.00;0.70;;;32.10;48.40;;;;;;4900924;29;20450;-74
2022/09/07 15:23:10;;;;;;;0.90;0.60;;;32.00;48.10;;;;;;4907316;29;20446;-75
2022/09/07 15:25:38;;;;;;;0.80;0.80;;;31.50;48.70;;;;;;4907539;29;20478;-75
2022/09/07 15:28:05;;;;;;;1.10;0.70;;;31.10;49.40;;;;;;4900928;29;20465;-73
2022/09/07 15:30:33;;;;;;;0.80;0.60;;;30.90;49.70;;;;;;4900817;29;20862;-74
2022/09/07 15:33:01;;;;;;;0.93;0.70;;;30.60;50.10;;;;;;4900430;29;20942;-74
2022/09/07 15:35:28;;;;;;;1.20;0.70;;;30.40;50.50;;;;;;4900723;29;20466;-75
2022/09/07 15:37:54;;;;;;;0.80;0.70;;;30.10;50.90;;;;;;4900405;29;20811;-74
2022/09/07 15:40:25;;;;;;;0.87;0.77;;;29.90;51.20;;;;;;4901088;29;20458;-73
2022/09/07 15:42:52;;;;;;;0.80;0.60;;;29.80;51.80;;;;;;4906914;29;20513;-75
2022/09/07 15:45:18;;;;;;;0.70;0.60;;;29.50;51.70;;;;;;4904452;29;21020;-72
2022/09/07 15:47:48;;;;;;;0.80;0.60;;;29.40;52.40;;;;;;4900529;29;20884;-73
2022/09/07 15:50:17;;;;;;;0.70;0.60;;;29.30;52.30;;;;;;4900941;29;20466;-74
2022/09/07 15:52:43;;;;;;;0.80;0.70;;;29.20;52.60;;;;;;4900667;29;20509;-72
2022/09/07 15:55:10;;;;;;;0.70;0.60;;;29.20;53.10;;;;;;4900404;29;20505;-72
2022/09/07 15:57:37;;;;;;;0.80;0.60;;;29.20;53.50;;;;;;4900603;29;20937;-76
2022/09/07 16:00:06;;;;;;;0.70;0.70;;;29.20;53.50;;;;;;4900361;29;20502;-76
2022/09/07 16:02:35;;;;;;;1.30;0.70;;;29.10;53.90;;;;;;4899743;29;20486;-75
2022/09/07 16:05:02;;;;;;;1.27;0.70;;;29.20;54.90;;;;;;4900389;29;20485;-75
2022/09/07 16:07:30;;;;;;;0.70;0.60;;;29.30;53.80;;;;;;4900108;29;20470;-76
2022/09/07 16:09:57;;;;;;;0.80;0.60;;;29.20;53.50;;;;;;4899692;29;20837;-76